Edgar County, IL

9:27 PM CDT on August 01, 2014 (GMT -0500)
Terre Haute International-Hulman (KHUF) Elev 584 ft | 39.45 °N, 87.31 °W | Change Station

Current weather conditions updated 26 minutes ago

Mostly Cloudy
Mostly Cloudy
70 °F
Feels Like 70 °F
N
9
Wind Variable Wind from West

Tomorrow is forecast to be nearly the same temperature as today. Partly cloudy with a stray thunderstorm.

Today
High -- | Low -- °F
--% Chance of Precip.
Yesterday
High -- | Low -- °F
Precip. -- in
5:49 AM 8:03 PM
Waxing Crescent, 31% visible
Pressure 30.09 in
Visibility 10.0 miles
Clouds Mostly Cloudy 9500 ft
Dew Point 63 °F
Humidity 78%
Rainfall 0.00 in
Snow Depth Not available.
UV 0 out of 12
Pollen 6.80 out of 12
Air Quality Not available.
Flu Activity Not available.
SPECI KHUF 020201Z 27008KT 10SM BKN095 21/17 A3009 RMK AO2 LTG DSNT S AND W T02110172 $

More Conditions Fewer Conditions

Pressure 30.09 in
Visibility 10.0 miles
Clouds Mostly Cloudy 9500 ft
Dew Point 63 °F
Humidity 78%
Rainfall 0.00 in
Snow Depth Not available.
UV 0 out of 12
Pollen 6.80 out of 12
Air Quality Not available.
Flu Activity Not available.
SPECI KHUF 020201Z 27008KT 10SM BKN095 21/17 A3009 RMK AO2 LTG DSNT S AND W T02110172 $

More Conditions Fewer Conditions

10-Day Weather Forecast

Almanac

Astronomy

Aug. 01, 2014 Rise Set
Actual Time 5:49 AM CDT 8:03 PM CDT
Civil Twilight 5:19 AM CDT 8:33 PM CDT
Nautical Twilight 4:42 AM CDT 9:10 PM CDT
Astronomical Twilight 4:01 AM CDT 9:50 PM CDT
Moon 11:12 AM CDT (8/1) 10:49 PM CDT (8/1)
Length of Visible Light 15h 14m
Length of Day
14h 13m
Tomorrow will be 1m 58s shorter.
Waxing Crescent, 31% of the Moon is Illuminated
Today
Waxing Crescent
Aug 3
First Quarter
Aug 10
Full
Aug 17
Last Quarter
Aug 25
New

Today's Extremes

State Highs State Lows

Community

WunderPhotos

Upload Photos

1,739,807 photos uploaded!

Nearby

Snow Depth

Station Depth Elevation
No new snow has been reported.

Earthquake Activity

City Distance Mag. Time & Date
No recent earthquake activity has been reported nearby.
Minimum magnitude displayed is 2.5.

Coastal Water Temperatures

Place Temperature
No Stations Reporting

Nearby Weather Stations

Station Location Temp. Dew Point Humidity Wind Precip. Elev Updated Type
South Vermillion High School, Clinton, IN 69.6 °F 66 °F 89% East  at  0.0 mph 0.00 in / hr 518 ft 10:12 PM EDT Normal
Marshall, IL 66.0 °F - 68% SW  at  0.0 mph 0.01 in / hr 580 ft 9:25 PM CDT Normal
N0QIO Weather Station, Terre Haute, Terre Haute, IN 70.5 °F 68 °F 91% North  at  0.0 mph 0.00 in / hr 502 ft 10:15 PM EDT Normal
Marshall Golf Course, Marshall, IL 66.0 °F 64 °F 94% SSW  at  0.0 mph 0.06 in / hr 601 ft 9:27 PM CDT Rapid Fire
Sandcut/North Terre Haute, Terre Haute, IN 68.4 °F 59 °F 70% North  at  - 0.00 in / hr 580 ft 10:26 PM EDT Normal
Rockville, IN 68.0 °F 63 °F 85% NE  at  0.0 mph 0.00 in / hr 702 ft 10:26 PM EDT Rapid Fire

Show More Stations Show Fewer Stations